24h
KLIENDITUGI:
Saartelennuliinid: +372 58856336 (24/7)
Estairi piletikassa lennujaamas:
+372 6058887; +372 55603687

11.10.2018 hommikune Transaviabaltika lend KTB670 Tallinn - Kärdla ja KTB671 Kärdla – Tallinn väljalend jääb ära. Lennu ära jäämise põhjustab ilmastikuolu Kärdla lennuväljal. Reisijatele võimaldatakse tasuta lennupileti ümberbroneerimine reisija soovi kohasele mõnele teisele Tallinn-Kärdla või Kärdla-Tallinn lennule. Reisijatele kes ei soovi lennupileti ümberbroneerimist teisele lennule tagastatakse piletiraha. Oma soovist tuleb teada anda e-mailile [email protected] Lisainformatsioon telefonil 58856336.

EEKA Kärdla lennuväli FCEO32 EETN 110300

TAF EEKA 110300Z 1104/1110 VRB02KT 0800 FG VV001 TEMPO 1104/1107 2000

BR BKN003 BECMG 1107/1109 8000 BKN007=

METAR EEKA 110250Z 15002KT 0900 FG VV001 06/06 Q1029=
Kuupäev: 
11/10/2018